sensor_id;sensor_type;location;lat;lon;timestamp;temperature;humidity
18950;DHT22;9608;49.288;8.130;2022-12-18T00:00:47;-8.40;99.90
18950;DHT22;9608;49.288;8.130;2022-12-18T00:03:14;-8.30;99.90
18950;DHT22;9608;49.288;8.130;2022-12-18T00:05:51;-8.20;99.90
18950;DHT22;9608;49.288;8.130;2022-12-18T00:08:18;-8.10;99.90
18950;DHT22;9608;49.288;8.130;2022-12-18T00:10:47;-8.10;99.90
18950;DHT22;9608;49.288;8.130;2022-12-18T00:13:13;-8.00;99.90
18950;DHT22;9608;49.288;8.130;2022-12-18T00:15:40;-8.00;99.90
18950;DHT22;9608;49.288;8.130;2022-12-18T00:18:07;-8.00;99.90
18950;DHT22;9608;49.288;8.130;2022-12-18T00:20:36;-7.90;99.90
18950;DHT22;9608;49.288;8.130;2022-12-18T00:23:04;-7.80;99.90
18950;DHT22;9608;49.288;8.130;2022-12-18T00:25:32;-7.90;99.90
18950;DHT22;9608;49.288;8.130;2022-12-18T00:28:01;-7.80;99.90
18950;DHT22;9608;49.288;8.130;2022-12-18T00:30:28;-7.90;99.90
18950;DHT22;9608;49.288;8.130;2022-12-18T00:32:55;-7.80;99.90
18950;DHT22;9608;49.288;8.130;2022-12-18T00:35:22;-7.90;99.90
18950;DHT22;9608;49.288;8.130;2022-12-18T00:37:48;-8.00;99.90
18950;DHT22;9608;49.288;8.130;2022-12-18T00:40:15;-7.90;99.90
18950;DHT22;9608;49.288;8.130;2022-12-18T00:42:42;-7.80;99.90
18950;DHT22;9608;49.288;8.130;2022-12-18T00:45:29;-7.80;99.90
18950;DHT22;9608;49.288;8.130;2022-12-18T00:47:56;-7.80;99.90
18950;DHT22;9608;49.288;8.130;2022-12-18T00:50:24;-7.90;99.90
18950;DHT22;9608;49.288;8.130;2022-12-18T00:52:51;-7.80;99.90
18950;DHT22;9608;49.288;8.130;2022-12-18T00:55:18;-7.70;99.90
18950;DHT22;9608;49.288;8.130;2022-12-18T00:57:44;-7.60;99.90
18950;DHT22;9608;49.288;8.130;2022-12-18T01:00:13;-7.40;99.90
18950;DHT22;9608;49.288;8.130;2022-12-18T01:02:42;-7.30;99.90
18950;DHT22;9608;49.288;8.130;2022-12-18T01:05:10;-7.20;99.90
18950;DHT22;9608;49.288;8.130;2022-12-18T01:07:37;-7.20;99.90
18950;DHT22;9608;49.288;8.130;2022-12-18T01:10:06;-7.10;99.90
18950;DHT22;9608;49.288;8.130;2022-12-18T01:12:33;-7.20;99.90
18950;DHT22;9608;49.288;8.130;2022-12-18T01:15:00;-7.30;99.90
18950;DHT22;9608;49.288;8.130;2022-12-18T01:17:27;-7.30;99.90
18950;DHT22;9608;49.288;8.130;2022-12-18T01:19:55;-7.10;99.90
18950;DHT22;9608;49.288;8.130;2022-12-18T01:22:21;-7.10;99.90
18950;DHT22;9608;49.288;8.130;2022-12-18T01:24:48;-7.00;99.90
18950;DHT22;9608;49.288;8.130;2022-12-18T01:27:15;-7.00;99.90
18950;DHT22;9608;49.288;8.130;2022-12-18T01:29:42;-7.00;99.90
18950;DHT22;9608;49.288;8.130;2022-12-18T01:32:08;-6.90;99.90
18950;DHT22;9608;49.288;8.130;2022-12-18T01:34:35;-7.00;99.90
18950;DHT22;9608;49.288;8.130;2022-12-18T01:37:04;-7.10;99.90
18950;DHT22;9608;49.288;8.130;2022-12-18T01:39:31;-7.20;99.90
18950;DHT22;9608;49.288;8.130;2022-12-18T01:42:05;-7.20;99.90
18950;DHT22;9608;49.288;8.130;2022-12-18T01:44:58;-7.20;99.90
18950;DHT22;9608;49.288;8.130;2022-12-18T01:47:30;-7.10;99.90
18950;DHT22;9608;49.288;8.130;2022-12-18T01:50:00;-7.30;99.90
18950;DHT22;9608;49.288;8.130;2022-12-18T01:52:31;-7.20;99.90
18950;DHT22;9608;49.288;8.130;2022-12-18T01:54:59;-7.20;99.90
18950;DHT22;9608;49.288;8.130;2022-12-18T01:57:27;-7.30;99.90
18950;DHT22;9608;49.288;8.130;2022-12-18T01:59:59;-7.30;99.90
18950;DHT22;9608;49.288;8.130;2022-12-18T02:02:27;-7.20;99.90
18950;DHT22;9608;49.288;8.130;2022-12-18T02:04:54;-7.20;99.90
18950;DHT22;9608;49.288;8.130;2022-12-18T02:07:26;-7.20;99.90
18950;DHT22;9608;49.288;8.130;2022-12-18T02:10:04;-7.00;99.90
18950;DHT22;9608;49.288;8.130;2022-12-18T02:12:39;-6.90;99.90
18950;DHT22;9608;49.288;8.130;2022-12-18T02:15:13;-6.80;99.90
18950;DHT22;9608;49.288;8.130;2022-12-18T02:17:45;-6.80;99.90
18950;DHT22;9608;49.288;8.130;2022-12-18T02:20:17;-6.90;99.90
18950;DHT22;9608;49.288;8.130;2022-12-18T02:22:53;-6.90;99.90
18950;DHT22;9608;49.288;8.130;2022-12-18T02:25:38;-6.80;99.90
18950;DHT22;9608;49.288;8.130;2022-12-18T02:28:11;-6.80;99.90
18950;DHT22;9608;49.288;8.130;2022-12-18T02:30:40;-6.90;99.90
18950;DHT22;9608;49.288;8.130;2022-12-18T02:33:10;-6.90;99.90
18950;DHT22;9608;49.288;8.130;2022-12-18T02:35:38;-6.80;99.90
18950;DHT22;9608;49.288;8.130;2022-12-18T02:38:06;-6.90;99.90
18950;DHT22;9608;49.288;8.130;2022-12-18T02:40:34;-6.90;99.90
18950;DHT22;9608;49.288;8.130;2022-12-18T02:43:08;-6.90;99.90
18950;DHT22;9608;49.288;8.130;2022-12-18T02:45:35;-6.80;99.90
18950;DHT22;9608;49.288;8.130;2022-12-18T02:48:02;-6.80;99.90
18950;DHT22;9608;49.288;8.130;2022-12-18T02:50:35;-6.90;99.90
18950;DHT22;9608;49.288;8.130;2022-12-18T02:53:12;-6.80;99.90
18950;DHT22;9608;49.288;8.130;2022-12-18T02:55:48;-6.90;99.90
18950;DHT22;9608;49.288;8.130;2022-12-18T02:58:26;-6.80;99.90
18950;DHT22;9608;49.288;8.130;2022-12-18T03:00:59;-6.70;99.90
18950;DHT22;9608;49.288;8.130;2022-12-18T03:03:31;-6.70;99.90
18950;DHT22;9608;49.288;8.130;2022-12-18T03:06:03;-6.80;99.90
18950;DHT22;9608;49.288;8.130;2022-12-18T03:08:34;-6.90;99.90
18950;DHT22;9608;49.288;8.130;2022-12-18T03:11:06;-7.00;99.90
18950;DHT22;9608;49.288;8.130;2022-12-18T03:13:38;-6.90;99.90
18950;DHT22;9608;49.288;8.130;2022-12-18T03:16:09;-6.80;99.90
18950;DHT22;9608;49.288;8.130;2022-12-18T03:18:43;-6.70;99.90
18950;DHT22;9608;49.288;8.130;2022-12-18T03:21:13;-6.70;99.90
18950;DHT22;9608;49.288;8.130;2022-12-18T03:23:45;-6.80;99.90
18950;DHT22;9608;49.288;8.130;2022-12-18T03:26:16;-6.90;99.90
18950;DHT22;9608;49.288;8.130;2022-12-18T03:28:48;-6.70;99.90
18950;DHT22;9608;49.288;8.130;2022-12-18T03:31:17;-6.60;99.90
18950;DHT22;9608;49.288;8.130;2022-12-18T03:33:47;-6.60;99.90
18950;DHT22;9608;49.288;8.130;2022-12-18T03:36:17;-6.50;99.90
18950;DHT22;9608;49.288;8.130;2022-12-18T03:38:44;-6.40;99.90
18950;DHT22;9608;49.288;8.130;2022-12-18T03:41:16;-6.50;99.90
18950;DHT22;9608;49.288;8.130;2022-12-18T03:43:50;-6.40;99.90
18950;DHT22;9608;49.288;8.130;2022-12-18T03:46:24;-6.20;99.90
18950;DHT22;9608;49.288;8.130;2022-12-18T03:48:58;-6.30;99.90
18950;DHT22;9608;49.288;8.130;2022-12-18T03:51:31;-6.30;99.90
18950;DHT22;9608;49.288;8.130;2022-12-18T03:54:04;-6.30;99.90
18950;DHT22;9608;49.288;8.130;2022-12-18T03:56:42;-6.30;99.90
18950;DHT22;9608;49.288;8.130;2022-12-18T03:59:12;-6.30;99.90
18950;DHT22;9608;49.288;8.130;2022-12-18T04:01:45;-6.30;99.90
18950;DHT22;9608;49.288;8.130;2022-12-18T04:04:13;-6.20;99.90
18950;DHT22;9608;49.288;8.130;2022-12-18T04:06:41;-6.20;99.90
18950;DHT22;9608;49.288;8.130;2022-12-18T04:09:08;-6.40;99.90
18950;DHT22;9608;49.288;8.130;2022-12-18T04:11:35;-6.50;99.90
18950;DHT22;9608;49.288;8.130;2022-12-18T04:14:02;-6.40;99.90
18950;DHT22;9608;49.288;8.130;2022-12-18T04:16:30;-6.40;99.90
18950;DHT22;9608;49.288;8.130;2022-12-18T04:18:57;-6.20;99.90
18950;DHT22;9608;49.288;8.130;2022-12-18T04:21:24;-6.10;99.90
18950;DHT22;9608;49.288;8.130;2022-12-18T04:23:51;-6.30;99.90
18950;DHT22;9608;49.288;8.130;2022-12-18T04:26:17;-6.20;99.90
18950;DHT22;9608;49.288;8.130;2022-12-18T04:28:44;-6.30;99.90
18950;DHT22;9608;49.288;8.130;2022-12-18T04:31:11;-6.20;99.90
18950;DHT22;9608;49.288;8.130;2022-12-18T04:33:39;-6.40;99.90
18950;DHT22;9608;49.288;8.130;2022-12-18T04:36:06;-6.30;99.90
18950;DHT22;9608;49.288;8.130;2022-12-18T04:38:33;-6.40;99.90
18950;DHT22;9608;49.288;8.130;2022-12-18T04:40:59;-6.40;99.90
18950;DHT22;9608;49.288;8.130;2022-12-18T04:43:26;-6.40;99.90
18950;DHT22;9608;49.288;8.130;2022-12-18T04:45:53;-6.30;99.90
18950;DHT22;9608;49.288;8.130;2022-12-18T04:48:20;-6.30;99.90
18950;DHT22;9608;49.288;8.130;2022-12-18T04:50:48;-6.20;99.90
18950;DHT22;9608;49.288;8.130;2022-12-18T04:53:15;-6.20;99.90
18950;DHT22;9608;49.288;8.130;2022-12-18T04:55:42;-6.20;99.90
18950;DHT22;9608;49.288;8.130;2022-12-18T04:58:08;-6.20;99.90
18950;DHT22;9608;49.288;8.130;2022-12-18T05:00:35;-6.20;99.90
18950;DHT22;9608;49.288;8.130;2022-12-18T05:03:02;-6.40;99.90
18950;DHT22;9608;49.288;8.130;2022-12-18T05:05:29;-6.40;99.90
18950;DHT22;9608;49.288;8.130;2022-12-18T05:07:57;-6.30;99.90
18950;DHT22;9608;49.288;8.130;2022-12-18T05:10:23;-6.30;99.90
18950;DHT22;9608;49.288;8.130;2022-12-18T05:12:50;-6.30;99.90
18950;DHT22;9608;49.288;8.130;2022-12-18T05:15:27;-6.20;99.90
18950;DHT22;9608;49.288;8.130;2022-12-18T05:17:54;-6.10;99.90
18950;DHT22;9608;49.288;8.130;2022-12-18T05:20:21;-6.20;99.90
18950;DHT22;9608;49.288;8.130;2022-12-18T05:22:48;-6.40;99.90
18950;DHT22;9608;49.288;8.130;2022-12-18T05:25:17;-6.50;99.90
18950;DHT22;9608;49.288;8.130;2022-12-18T05:27:43;-6.40;99.90
18950;DHT22;9608;49.288;8.130;2022-12-18T05:30:11;-6.30;99.90
18950;DHT22;9608;49.288;8.130;2022-12-18T05:32:39;-6.20;99.90
18950;DHT22;9608;49.288;8.130;2022-12-18T05:35:08;-6.10;99.90
18950;DHT22;9608;49.288;8.130;2022-12-18T05:37:35;-6.10;99.90
18950;DHT22;9608;49.288;8.130;2022-12-18T05:40:03;-6.10;99.90
18950;DHT22;9608;49.288;8.130;2022-12-18T05:42:31;-6.00;99.90
18950;DHT22;9608;49.288;8.130;2022-12-18T05:44:58;-6.00;99.90
18950;DHT22;9608;49.288;8.130;2022-12-18T05:47:26;-6.00;99.90
18950;DHT22;9608;49.288;8.130;2022-12-18T05:49:52;-6.00;99.90
18950;DHT22;9608;49.288;8.130;2022-12-18T05:52:19;-6.20;99.90
18950;DHT22;9608;49.288;8.130;2022-12-18T05:54:46;-6.30;99.90
18950;DHT22;9608;49.288;8.130;2022-12-18T05:57:12;-6.20;99.90
18950;DHT22;9608;49.288;8.130;2022-12-18T05:59:40;-6.20;99.90
18950;DHT22;9608;49.288;8.130;2022-12-18T06:02:07;-6.20;99.90
18950;DHT22;9608;49.288;8.130;2022-12-18T06:04:34;-6.10;99.90
18950;DHT22;9608;49.288;8.130;2022-12-18T06:07:00;-6.10;99.90
18950;DHT22;9608;49.288;8.130;2022-12-18T06:09:29;-6.10;99.90
18950;DHT22;9608;49.288;8.130;2022-12-18T06:11:55;-6.20;99.90
18950;DHT22;9608;49.288;8.130;2022-12-18T06:14:22;-6.30;99.90
18950;DHT22;9608;49.288;8.130;2022-12-18T06:16:51;-6.30;99.90
18950;DHT22;9608;49.288;8.130;2022-12-18T06:19:18;-6.30;99.90
18950;DHT22;9608;49.288;8.130;2022-12-18T06:21:44;-6.20;99.90
18950;DHT22;9608;49.288;8.130;2022-12-18T06:24:11;-6.10;99.90
18950;DHT22;9608;49.288;8.130;2022-12-18T06:26:38;-6.10;99.90
18950;DHT22;9608;49.288;8.130;2022-12-18T06:29:05;-6.20;99.90
18950;DHT22;9608;49.288;8.130;2022-12-18T06:31:32;-6.20;99.90
18950;DHT22;9608;49.288;8.130;2022-12-18T06:34:02;-6.20;99.90
18950;DHT22;9608;49.288;8.130;2022-12-18T06:36:29;-6.30;99.90
18950;DHT22;9608;49.288;8.130;2022-12-18T06:38:56;-6.30;99.90
18950;DHT22;9608;49.288;8.130;2022-12-18T06:41:23;-6.30;99.90
18950;DHT22;9608;49.288;8.130;2022-12-18T06:43:50;-6.30;99.90
18950;DHT22;9608;49.288;8.130;2022-12-18T06:46:17;-6.30;99.90
18950;DHT22;9608;49.288;8.130;2022-12-18T06:48:46;-6.30;99.90
18950;DHT22;9608;49.288;8.130;2022-12-18T06:51:17;-6.40;99.90
18950;DHT22;9608;49.288;8.130;2022-12-18T06:53:44;-6.60;99.90
18950;DHT22;9608;49.288;8.130;2022-12-18T06:56:11;-6.70;99.90
18950;DHT22;9608;49.288;8.130;2022-12-18T06:58:37;-6.50;99.90
18950;DHT22;9608;49.288;8.130;2022-12-18T07:01:06;-6.50;99.90
18950;DHT22;9608;49.288;8.130;2022-12-18T07:03:33;-6.60;99.90
18950;DHT22;9608;49.288;8.130;2022-12-18T07:06:00;-6.60;99.90
18950;DHT22;9608;49.288;8.130;2022-12-18T07:08:28;-6.60;99.90
18950;DHT22;9608;49.288;8.130;2022-12-18T07:10:55;-6.60;99.90
18950;DHT22;9608;49.288;8.130;2022-12-18T07:13:21;-6.70;99.90
18950;DHT22;9608;49.288;8.130;2022-12-18T07:15:48;-6.80;99.90
18950;DHT22;9608;49.288;8.130;2022-12-18T07:18:15;-6.80;99.90
18950;DHT22;9608;49.288;8.130;2022-12-18T07:20:42;-6.80;99.90
18950;DHT22;9608;49.288;8.130;2022-12-18T07:23:09;-6.70;99.90
18950;DHT22;9608;49.288;8.130;2022-12-18T07:25:37;-6.60;99.90
18950;DHT22;9608;49.288;8.130;2022-12-18T07:28:04;-6.70;99.90
18950;DHT22;9608;49.288;8.130;2022-12-18T07:30:31;-6.80;99.90
18950;DHT22;9608;49.288;8.130;2022-12-18T07:32:58;-6.90;99.90
18950;DHT22;9608;49.288;8.130;2022-12-18T07:35:24;-6.90;99.90
18950;DHT22;9608;49.288;8.130;2022-12-18T07:37:51;-7.00;99.90
18950;DHT22;9608;49.288;8.130;2022-12-18T07:40:18;-7.00;99.90
18950;DHT22;9608;49.288;8.130;2022-12-18T07:42:49;-7.00;99.90
18950;DHT22;9608;49.288;8.130;2022-12-18T07:45:15;-7.00;99.90
18950;DHT22;9608;49.288;8.130;2022-12-18T07:47:42;-7.00;99.90
18950;DHT22;9608;49.288;8.130;2022-12-18T07:50:09;-6.90;99.90
18950;DHT22;9608;49.288;8.130;2022-12-18T07:52:36;-6.90;99.90
18950;DHT22;9608;49.288;8.130;2022-12-18T07:55:03;-6.80;99.90
18950;DHT22;9608;49.288;8.130;2022-12-18T07:57:29;-6.80;99.90
18950;DHT22;9608;49.288;8.130;2022-12-18T07:59:57;-6.80;99.90
18950;DHT22;9608;49.288;8.130;2022-12-18T08:02:24;-6.80;99.90
18950;DHT22;9608;49.288;8.130;2022-12-18T08:04:51;-6.80;99.90
18950;DHT22;9608;49.288;8.130;2022-12-18T08:07:17;-6.70;99.90
18950;DHT22;9608;49.288;8.130;2022-12-18T08:09:44;-6.70;99.90
18950;DHT22;9608;49.288;8.130;2022-12-18T08:12:11;-6.70;99.90
18950;DHT22;9608;49.288;8.130;2022-12-18T08:14:37;-6.60;99.90
18950;DHT22;9608;49.288;8.130;2022-12-18T08:17:06;-6.60;99.90
18950;DHT22;9608;49.288;8.130;2022-12-18T08:19:32;-6.60;99.90
18950;DHT22;9608;49.288;8.130;2022-12-18T08:22:02;-6.40;99.90
18950;DHT22;9608;49.288;8.130;2022-12-18T08:24:28;-6.30;99.90
18950;DHT22;9608;49.288;8.130;2022-12-18T08:26:55;-6.20;99.90
18950;DHT22;9608;49.288;8.130;2022-12-18T08:29:22;-6.30;99.90
18950;DHT22;9608;49.288;8.130;2022-12-18T08:31:49;-6.20;99.90
18950;DHT22;9608;49.288;8.130;2022-12-18T08:34:17;-6.10;99.90
18950;DHT22;9608;49.288;8.130;2022-12-18T08:36:44;-6.10;99.90
18950;DHT22;9608;49.288;8.130;2022-12-18T08:39:11;-6.00;99.90
18950;DHT22;9608;49.288;8.130;2022-12-18T08:41:38;-5.90;99.90
18950;DHT22;9608;49.288;8.130;2022-12-18T08:44:07;-5.90;99.90
18950;DHT22;9608;49.288;8.130;2022-12-18T08:46:51;-5.80;99.90
18950;DHT22;9608;49.288;8.130;2022-12-18T08:49:19;-5.90;99.90
18950;DHT22;9608;49.288;8.130;2022-12-18T08:51:45;-5.90;99.90
18950;DHT22;9608;49.288;8.130;2022-12-18T08:54:12;-5.80;99.90
18950;DHT22;9608;49.288;8.130;2022-12-18T08:56:39;-5.70;99.90
18950;DHT22;9608;49.288;8.130;2022-12-18T08:59:06;-5.70;99.90
18950;DHT22;9608;49.288;8.130;2022-12-18T09:01:33;-5.60;99.90
18950;DHT22;9608;49.288;8.130;2022-12-18T09:03:59;-5.70;99.90
18950;DHT22;9608;49.288;8.130;2022-12-18T09:06:27;-5.70;99.90
18950;DHT22;9608;49.288;8.130;2022-12-18T09:08:54;-5.50;99.90
18950;DHT22;9608;49.288;8.130;2022-12-18T09:11:23;-5.40;99.90
18950;DHT22;9608;49.288;8.130;2022-12-18T09:13:50;-5.40;99.90
18950;DHT22;9608;49.288;8.130;2022-12-18T09:16:17;-5.40;99.90
18950;DHT22;9608;49.288;8.130;2022-12-18T09:18:45;-5.30;99.90
18950;DHT22;9608;49.288;8.130;2022-12-18T09:21:13;-5.20;99.90
18950;DHT22;9608;49.288;8.130;2022-12-18T09:23:42;-5.10;99.90
18950;DHT22;9608;49.288;8.130;2022-12-18T09:26:09;-4.90;99.90
18950;DHT22;9608;49.288;8.130;2022-12-18T09:28:36;-4.80;99.90
18950;DHT22;9608;49.288;8.130;2022-12-18T09:31:05;-4.60;99.90
18950;DHT22;9608;49.288;8.130;2022-12-18T09:33:33;-4.70;99.90
18950;DHT22;9608;49.288;8.130;2022-12-18T09:36:01;-4.60;99.90
18950;DHT22;9608;49.288;8.130;2022-12-18T09:38:28;-4.50;99.90
18950;DHT22;9608;49.288;8.130;2022-12-18T09:40:59;-4.70;99.90
18950;DHT22;9608;49.288;8.130;2022-12-18T09:43:29;-4.60;99.90
18950;DHT22;9608;49.288;8.130;2022-12-18T09:45:58;-4.40;99.90
18950;DHT22;9608;49.288;8.130;2022-12-18T09:48:30;-4.30;99.90
18950;DHT22;9608;49.288;8.130;2022-12-18T09:51:02;-4.20;99.90
18950;DHT22;9608;49.288;8.130;2022-12-18T09:53:33;-4.10;99.90
18950;DHT22;9608;49.288;8.130;2022-12-18T09:56:04;-4.00;99.90
18950;DHT22;9608;49.288;8.130;2022-12-18T09:58:34;-3.70;99.90
18950;DHT22;9608;49.288;8.130;2022-12-18T10:01:06;-3.50;99.90
18950;DHT22;9608;49.288;8.130;2022-12-18T10:03:36;-3.50;99.90
18950;DHT22;9608;49.288;8.130;2022-12-18T10:06:07;-3.40;99.90
18950;DHT22;9608;49.288;8.130;2022-12-18T10:08:42;-3.60;99.90
18950;DHT22;9608;49.288;8.130;2022-12-18T10:11:32;-3.60;99.90
18950;DHT22;9608;49.288;8.130;2022-12-18T10:14:09;-3.70;99.90
18950;DHT22;9608;49.288;8.130;2022-12-18T10:16:46;-3.70;99.90
18950;DHT22;9608;49.288;8.130;2022-12-18T10:19:34;-3.40;99.90
18950;DHT22;9608;49.288;8.130;2022-12-18T10:22:11;-3.10;99.90
18950;DHT22;9608;49.288;8.130;2022-12-18T10:24:43;-3.10;99.90
18950;DHT22;9608;49.288;8.130;2022-12-18T10:27:17;-3.30;99.90
18950;DHT22;9608;49.288;8.130;2022-12-18T10:29:45;-3.20;99.90
18950;DHT22;9608;49.288;8.130;2022-12-18T10:32:17;-3.40;99.90
18950;DHT22;9608;49.288;8.130;2022-12-18T10:34:48;-3.30;99.90
18950;DHT22;9608;49.288;8.130;2022-12-18T10:37:17;-3.10;99.90
18950;DHT22;9608;49.288;8.130;2022-12-18T10:39:45;-3.40;99.90
18950;DHT22;9608;49.288;8.130;2022-12-18T10:42:18;-3.50;99.90
18950;DHT22;9608;49.288;8.130;2022-12-18T10:44:45;-3.20;99.90
18950;DHT22;9608;49.288;8.130;2022-12-18T10:47:14;-2.90;99.90
18950;DHT22;9608;49.288;8.130;2022-12-18T10:49:49;-2.70;99.90
18950;DHT22;9608;49.288;8.130;2022-12-18T10:52:19;-2.70;99.90
18950;DHT22;9608;49.288;8.130;2022-12-18T10:54:49;-2.70;99.90
18950;DHT22;9608;49.288;8.130;2022-12-18T10:57:30;-2.60;99.90
18950;DHT22;9608;49.288;8.130;2022-12-18T11:00:00;-2.80;99.90
18950;DHT22;9608;49.288;8.130;2022-12-18T11:02:34;-2.80;99.90
18950;DHT22;9608;49.288;8.130;2022-12-18T11:05:03;-2.80;99.90
18950;DHT22;9608;49.288;8.130;2022-12-18T11:07:47;-3.00;99.90
18950;DHT22;9608;49.288;8.130;2022-12-18T11:10:16;-2.80;99.90
18950;DHT22;9608;49.288;8.130;2022-12-18T11:12:45;-3.00;99.90
18950;DHT22;9608;49.288;8.130;2022-12-18T11:15:18;-3.00;99.90
18950;DHT22;9608;49.288;8.130;2022-12-18T11:17:48;-2.80;99.90
18950;DHT22;9608;49.288;8.130;2022-12-18T11:20:22;-2.70;99.90
18950;DHT22;9608;49.288;8.130;2022-12-18T11:22:56;-2.80;99.90
18950;DHT22;9608;49.288;8.130;2022-12-18T11:25:24;-2.70;99.90
18950;DHT22;9608;49.288;8.130;2022-12-18T11:27:54;-2.60;99.90
18950;DHT22;9608;49.288;8.130;2022-12-18T11:30:24;-2.50;99.90
18950;DHT22;9608;49.288;8.130;2022-12-18T11:32:54;-2.50;99.90
18950;DHT22;9608;49.288;8.130;2022-12-18T11:35:35;-2.60;99.90
18950;DHT22;9608;49.288;8.130;2022-12-18T11:38:10;-2.40;99.90
18950;DHT22;9608;49.288;8.130;2022-12-18T11:40:42;-2.30;99.90
18950;DHT22;9608;49.288;8.130;2022-12-18T11:43:14;-2.70;99.90
18950;DHT22;9608;49.288;8.130;2022-12-18T11:45:48;-2.70;99.90
18950;DHT22;9608;49.288;8.130;2022-12-18T11:48:18;-2.40;99.90
18950;DHT22;9608;49.288;8.130;2022-12-18T11:50:49;-2.30;99.90
18950;DHT22;9608;49.288;8.130;2022-12-18T11:53:17;-2.30;99.90
18950;DHT22;9608;49.288;8.130;2022-12-18T11:55:51;-2.20;99.90
18950;DHT22;9608;49.288;8.130;2022-12-18T11:58:31;-2.20;99.90
18950;DHT22;9608;49.288;8.130;2022-12-18T12:01:13;-2.40;99.90
18950;DHT22;9608;49.288;8.130;2022-12-18T12:04:14;-2.40;99.90
18950;DHT22;9608;49.288;8.130;2022-12-18T12:06:52;-2.40;99.90
18950;DHT22;9608;49.288;8.130;2022-12-18T12:09:28;-2.40;99.90
18950;DHT22;9608;49.288;8.130;2022-12-18T12:12:10;-2.30;99.90
18950;DHT22;9608;49.288;8.130;2022-12-18T12:14:51;-2.30;99.90
18950;DHT22;9608;49.288;8.130;2022-12-18T12:17:28;-2.40;99.90
18950;DHT22;9608;49.288;8.130;2022-12-18T12:20:04;-2.40;99.90
18950;DHT22;9608;49.288;8.130;2022-12-18T12:22:36;-2.40;99.90
18950;DHT22;9608;49.288;8.130;2022-12-18T12:25:18;-2.20;99.90
18950;DHT22;9608;49.288;8.130;2022-12-18T12:27:52;-2.10;99.90
18950;DHT22;9608;49.288;8.130;2022-12-18T12:30:30;-2.40;99.90
18950;DHT22;9608;49.288;8.130;2022-12-18T12:33:13;-2.40;99.90
18950;DHT22;9608;49.288;8.130;2022-12-18T12:35:51;-2.40;99.90
18950;DHT22;9608;49.288;8.130;2022-12-18T12:38:22;-2.40;99.90
18950;DHT22;9608;49.288;8.130;2022-12-18T12:40:54;-2.30;99.90
18950;DHT22;9608;49.288;8.130;2022-12-18T12:43:29;-2.30;99.90
18950;DHT22;9608;49.288;8.130;2022-12-18T12:46:02;-2.30;99.90
18950;DHT22;9608;49.288;8.130;2022-12-18T12:48:35;-2.20;99.90
18950;DHT22;9608;49.288;8.130;2022-12-18T12:51:07;-2.30;99.90
18950;DHT22;9608;49.288;8.130;2022-12-18T12:53:36;-2.70;99.90
18950;DHT22;9608;49.288;8.130;2022-12-18T12:56:04;-2.90;99.90
18950;DHT22;9608;49.288;8.130;2022-12-18T12:58:36;-3.10;99.90
18950;DHT22;9608;49.288;8.130;2022-12-18T13:01:22;-3.20;99.90
18950;DHT22;9608;49.288;8.130;2022-12-18T13:03:57;-3.20;99.90
18950;DHT22;9608;49.288;8.130;2022-12-18T13:06:36;-2.80;99.90
18950;DHT22;9608;49.288;8.130;2022-12-18T13:09:04;-2.60;99.90
18950;DHT22;9608;49.288;8.130;2022-12-18T13:11:38;-2.50;99.90
18950;DHT22;9608;49.288;8.130;2022-12-18T13:14:27;-2.30;99.90
18950;DHT22;9608;49.288;8.130;2022-12-18T13:17:21;-2.10;99.90
18950;DHT22;9608;49.288;8.130;2022-12-18T13:19:51;-1.90;99.90
18950;DHT22;9608;49.288;8.130;2022-12-18T13:22:23;-1.80;99.90
18950;DHT22;9608;49.288;8.130;2022-12-18T13:24:50;-1.80;99.90
18950;DHT22;9608;49.288;8.130;2022-12-18T13:27:55;-1.80;99.90
18950;DHT22;9608;49.288;8.130;2022-12-18T13:30:47;-1.90;99.90
18950;DHT22;9608;49.288;8.130;2022-12-18T13:36:17;-2.10;99.90
18950;DHT22;9608;49.288;8.130;2022-12-18T13:39:10;-1.90;99.90
18950;DHT22;9608;49.288;8.130;2022-12-18T13:41:37;-1.80;99.90
18950;DHT22;9608;49.288;8.130;2022-12-18T13:44:12;-1.80;99.90
18950;DHT22;9608;49.288;8.130;2022-12-18T13:46:43;-1.90;99.90
18950;DHT22;9608;49.288;8.130;2022-12-18T13:49:21;-1.90;99.90
18950;DHT22;9608;49.288;8.130;2022-12-18T13:51:51;-2.00;99.90
18950;DHT22;9608;49.288;8.130;2022-12-18T13:54:20;-2.00;99.90
18950;DHT22;9608;49.288;8.130;2022-12-18T13:56:48;-2.10;99.90
18950;DHT22;9608;49.288;8.130;2022-12-18T13:59:18;-2.20;99.90
18950;DHT22;9608;49.288;8.130;2022-12-18T14:01:48;-2.40;99.90
18950;DHT22;9608;49.288;8.130;2022-12-18T14:04:24;-2.30;99.90
18950;DHT22;9608;49.288;8.130;2022-12-18T14:06:55;-2.30;99.90
18950;DHT22;9608;49.288;8.130;2022-12-18T14:09:26;-2.20;99.90
18950;DHT22;9608;49.288;8.130;2022-12-18T14:11:54;-2.40;99.90
18950;DHT22;9608;49.288;8.130;2022-12-18T14:14:44;-2.40;99.90
18950;DHT22;9608;49.288;8.130;2022-12-18T14:17:12;-2.40;99.90
18950;DHT22;9608;49.288;8.130;2022-12-18T14:19:42;-2.20;99.90
18950;DHT22;9608;49.288;8.130;2022-12-18T14:22:16;-2.20;99.90
18950;DHT22;9608;49.288;8.130;2022-12-18T14:24:43;-2.20;99.90
18950;DHT22;9608;49.288;8.130;2022-12-18T14:27:21;-2.20;99.90
18950;DHT22;9608;49.288;8.130;2022-12-18T14:29:48;-2.30;99.90
18950;DHT22;9608;49.288;8.130;2022-12-18T14:32:17;-2.40;99.90
18950;DHT22;9608;49.288;8.130;2022-12-18T14:34:45;-2.50;99.90
18950;DHT22;9608;49.288;8.130;2022-12-18T14:37:16;-2.50;99.90
18950;DHT22;9608;49.288;8.130;2022-12-18T14:39:56;-2.60;99.90
18950;DHT22;9608;49.288;8.130;2022-12-18T14:42:24;-2.80;99.90
18950;DHT22;9608;49.288;8.130;2022-12-18T14:47:53;-2.60;99.90
18950;DHT22;9608;49.288;8.130;2022-12-18T14:50:20;-2.50;99.90
18950;DHT22;9608;49.288;8.130;2022-12-18T14:52:48;-2.50;99.90
18950;DHT22;9608;49.288;8.130;2022-12-18T14:55:16;-2.50;99.90
18950;DHT22;9608;49.288;8.130;2022-12-18T14:57:43;-2.60;99.90
18950;DHT22;9608;49.288;8.130;2022-12-18T15:00:16;-2.70;99.90
18950;DHT22;9608;49.288;8.130;2022-12-18T15:02:43;-2.80;99.90
18950;DHT22;9608;49.288;8.130;2022-12-18T15:05:17;-2.80;99.90
18950;DHT22;9608;49.288;8.130;2022-12-18T15:07:46;-2.90;99.90
18950;DHT22;9608;49.288;8.130;2022-12-18T15:10:17;-3.00;99.90
18950;DHT22;9608;49.288;8.130;2022-12-18T15:12:45;-3.00;99.90
18950;DHT22;9608;49.288;8.130;2022-12-18T15:15:47;-3.10;99.90
18950;DHT22;9608;49.288;8.130;2022-12-18T15:18:15;-3.10;99.90
18950;DHT22;9608;49.288;8.130;2022-12-18T15:20:44;-3.10;99.90
18950;DHT22;9608;49.288;8.130;2022-12-18T15:23:15;-3.10;99.90
18950;DHT22;9608;49.288;8.130;2022-12-18T15:25:44;-3.10;99.90
18950;DHT22;9608;49.288;8.130;2022-12-18T15:28:19;-3.10;99.90
18950;DHT22;9608;49.288;8.130;2022-12-18T15:31:02;-3.10;99.90
18950;DHT22;9608;49.288;8.130;2022-12-18T15:33:31;-3.10;99.90
18950;DHT22;9608;49.288;8.130;2022-12-18T15:36:00;-3.10;99.90
18950;DHT22;9608;49.288;8.130;2022-12-18T15:38:27;-3.00;99.90
18950;DHT22;9608;49.288;8.130;2022-12-18T15:40:55;-3.00;99.90
18950;DHT22;9608;49.288;8.130;2022-12-18T15:43:23;-3.00;99.90
18950;DHT22;9608;49.288;8.130;2022-12-18T15:46:03;-2.90;99.90
18950;DHT22;9608;49.288;8.130;2022-12-18T15:48:33;-2.80;99.90
18950;DHT22;9608;49.288;8.130;2022-12-18T15:51:00;-2.80;99.90
18950;DHT22;9608;49.288;8.130;2022-12-18T15:53:30;-2.80;99.90
18950;DHT22;9608;49.288;8.130;2022-12-18T15:55:59;-2.70;99.90
18950;DHT22;9608;49.288;8.130;2022-12-18T15:58:43;-2.70;99.90
18950;DHT22;9608;49.288;8.130;2022-12-18T16:01:10;-2.70;99.90
18950;DHT22;9608;49.288;8.130;2022-12-18T16:03:37;-2.70;99.90
18950;DHT22;9608;49.288;8.130;2022-12-18T16:06:04;-2.60;99.90
18950;DHT22;9608;49.288;8.130;2022-12-18T16:08:31;-2.50;99.90
18950;DHT22;9608;49.288;8.130;2022-12-18T16:11:00;-2.40;99.90